Aérodrome :
LOGIN :

S'inscrire | Disclaimer

   EN    FR    IT 

 










Légende :    VFR   VFR Marginal   IFR   IFR Intensif   IFR Très Intensif
Visi : 
Plafond : 
>= 8 km
>= 3000ft
5 à 8 km
1000 à 3000 ft
1500m à 5 km
500 à 1000 ft
800 à 1500m
200 à 500 ft
< 800m
< 200 ft
Symboles :   Orages  Brouillard  Fortes neiges  Fortes précipitations  Vent > 20 kt
SIGMETs :   Divers  Orages  Givrage  Turbulence  Onde Orograph.  Cendres Volcan.






- Altitude de l'aérodrome : 963 ft
- Code IATA : TGM


LRTM - Transilvania Târgu Mureş Int.

DERNIER METAR :
  • 291830Z AUTO 14001KT 9999 SCT065/// BKN080/// BKN180/// 01/M03 Q1010

METARs EXPIRÉS :
  • 291800Z 32002KT 260V020 9999 SCT042 02/M04 Q1010 R07/19//95
  • 291730Z 22003KT 160V260 9999 FEW042 03/M04 Q1009 R07/19//95
  • 291700Z 19008KT 9999 FEW042 03/M04 Q1009 R07/19//95
  • 291630Z 02004KT 360V060 9999 FEW042 02/M04 Q1009 R07/19//95
  • 291600Z 33006KT 300V360 9999 FEW042 03/M04 Q1008 R07/19//95

TAF TAF LRTM
Valide du 29 à 18h jusqu'au 30 à 03h UTC


291700Z 2918/3003 VRB04KT 9999 SCT040
PROB30
TEMPO 2920/2924 5000 -FZRA BR BKN015 BKN040



MET'MAP, la Météo Aéronautique d'un coup d'oeil ! - Copyright ORBIFLY Décembre 2007 - Disclaimer

ORBIFLY MET'MAP TEAM :

Programmation & Développement : Alexandra Zaïnal
Sur une idée originale de : Baudouin d'Aumeries
Assistance à la programmation : Marc-Olivier Méhu
Soutien technique & logistique : Manuel Goepfert

Contact : metmap@orbifly.com




SOURCES & CREDITS :

   NOAA